Time;durP1;ratioP1;P1;durP2;ratioP2;P2;SDS_P1;SDS_P2;PMS_P1;PMS_P2;Temp;Humidity;BMP_temperature;BMP_pressure;BME280_temperature;BME280_humidity;BME280_pressure;Samples;Min_cycle;Max_cycle;Signal;HPM_P1;HPM_P2
2023/08/20 04:01:41;;;;;;;5.47;3.60;;;23.30;97.30;;;;;;5540860;23;21029;-89
2023/08/20 04:04:13;;;;;;;7.53;3.23;;;23.30;97.30;;;;;;5020262;28;20425;-89
2023/08/20 04:06:41;;;;;;;10.60;2.77;;;23.30;97.30;;;;;;5013245;28;20555;-91
2023/08/20 04:09:31;;;;;;;5.87;3.17;;;23.20;97.30;;;;;;5011992;28;20424;-90
2023/08/20 04:12:23;;;;;;;6.00;3.57;;;23.20;97.30;;;;;;4996311;28;20486;-89
2023/08/20 04:14:52;;;;;;;6.10;3.03;;;23.20;97.30;;;;;;5002999;28;20508;-90
2023/08/20 04:17:20;;;;;;;4.67;2.93;;;23.20;97.30;;;;;;4994673;28;20495;-89
2023/08/20 04:19:52;;;;;;;12.50;4.80;;;23.30;97.30;;;;;;4995730;28;20701;-89
2023/08/20 04:22:20;;;;;;;5.97;5.60;;;23.20;97.30;;;;;;4993577;28;20452;-90
2023/08/20 04:25:03;;;;;;;9.47;5.63;;;23.20;97.30;;;;;;4994828;28;20464;-90
2023/08/20 04:27:31;;;;;;;5.77;4.30;;;23.20;97.30;;;;;;4994047;28;20417;-91
2023/08/20 04:30:00;;;;;;;6.50;3.30;;;23.20;97.30;;;;;;4995519;28;20491;-89
2023/08/20 04:32:44;;;;;;;4.87;3.10;;;23.20;97.30;;;;;;4994307;28;20813;-90
2023/08/20 04:35:12;;;;;;;7.93;6.27;;;23.10;97.30;;;;;;4999655;28;20486;-89
2023/08/20 04:37:41;;;;;;;5.77;4.90;;;23.10;97.30;;;;;;4997647;28;20429;-88
2023/08/20 04:40:30;;;;;;;7.57;4.20;;;23.10;97.30;;;;;;4994308;28;20432;-90
2023/08/20 04:43:03;;;;;;;8.30;7.90;;;23.00;97.30;;;;;;4988132;28;20855;-90
2023/08/20 04:45:31;;;;;;;11.33;3.77;;;23.00;97.30;;;;;;5002670;28;20460;-90
2023/08/20 04:48:40;;;;;;;30.87;6.07;;;23.00;97.30;;;;;;4994150;28;20490;-90
2023/08/20 04:51:24;;;;;;;7.57;4.87;;;23.00;97.30;;;;;;4978208;28;20535;-91
2023/08/20 04:53:52;;;;;;;7.70;3.90;;;22.90;97.30;;;;;;4997296;28;20417;-90
2023/08/20 04:56:21;;;;;;;6.27;4.50;;;22.90;97.30;;;;;;5000621;28;20413;-90
2023/08/20 05:02:13;;;;;;;11.03;4.50;;;22.90;97.30;;;;;;4986684;28;20476;-89
2023/08/20 05:04:41;;;;;;;5.10;4.80;;;22.90;97.30;;;;;;4993429;28;20457;-90
2023/08/20 05:07:30;;;;;;;8.20;5.47;;;22.90;97.30;;;;;;4987446;28;20655;-90
2023/08/20 05:10:12;;;;;;;7.97;3.43;;;22.90;97.30;;;;;;4999100;28;20484;-90
2023/08/20 05:12:41;;;;;;;10.13;5.10;;;22.90;97.30;;;;;;5001724;28;20436;-90
2023/08/20 05:15:09;;;;;;;12.57;6.30;;;22.80;97.30;;;;;;4985686;28;20422;-90
2023/08/20 05:17:42;;;;;;;9.70;6.50;;;22.80;97.30;;;;;;5002245;28;20432;-90
2023/08/20 05:20:11;;;;;;;11.10;6.57;;;22.80;97.30;;;;;;4993162;28;20475;-89
2023/08/20 05:22:43;;;;;;;6.50;5.30;;;22.80;97.30;;;;;;4992679;28;20460;-90
2023/08/20 05:25:11;;;;;;;10.17;4.10;;;22.70;97.30;;;;;;4993235;28;20543;-90
2023/08/20 05:27:44;;;;;;;6.83;5.60;;;22.70;97.30;;;;;;4991774;28;20460;-89
2023/08/20 05:30:13;;;;;;;7.93;3.97;;;22.70;97.30;;;;;;4999558;28;20508;-90
2023/08/20 05:32:40;;;;;;;7.47;4.90;;;22.80;97.30;;;;;;4992056;28;20488;-90
2023/08/20 05:35:11;;;;;;;8.80;6.40;;;22.80;97.30;;;;;;4992850;28;20977;-90
2023/08/20 05:37:40;;;;;;;7.73;4.73;;;22.80;97.30;;;;;;4993883;28;20412;-90
2023/08/20 05:40:14;;;;;;;14.40;6.70;;;22.80;97.30;;;;;;5000670;28;20421;-91
2023/08/20 05:42:42;;;;;;;5.77;4.97;;;22.80;97.30;;;;;;4993805;28;20444;-91
2023/08/20 05:45:10;;;;;;;19.43;5.23;;;22.80;97.30;;;;;;4985596;28;20464;-90
2023/08/20 05:47:44;;;;;;;5.23;4.27;;;22.80;97.30;;;;;;4991917;28;20417;-90
2023/08/20 05:50:12;;;;;;;7.77;3.40;;;22.80;97.30;;;;;;4984633;28;20458;-91
2023/08/20 05:52:40;;;;;;;12.97;6.47;;;22.80;97.30;;;;;;4992467;28;20433;-90
2023/08/20 05:55:22;;;;;;;5.63;4.13;;;22.80;97.30;;;;;;4992986;28;20524;-90
2023/08/20 05:57:51;;;;;;;7.43;6.00;;;22.80;97.30;;;;;;4991850;28;20417;-89
2023/08/20 06:01:00;;;;;;;6.53;4.87;;;22.80;97.30;;;;;;4992054;28;20605;-90
2023/08/20 06:03:35;;;;;;;7.13;5.30;;;22.90;97.30;;;;;;4996969;28;20447;-90
2023/08/20 06:06:03;;;;;;;12.23;6.37;;;22.90;97.30;;;;;;4993061;28;20488;-89
2023/08/20 06:08:31;;;;;;;9.23;5.17;;;23.00;97.30;;;;;;4992883;28;20409;-90
2023/08/20 06:11:40;;;;;;;10.13;5.17;;;23.00;97.30;;;;;;4991885;28;20444;-89
2023/08/20 06:14:15;;;;;;;9.27;5.33;;;23.00;97.30;;;;;;4982679;28;20425;-90
2023/08/20 06:16:44;;;;;;;9.37;3.87;;;23.00;97.30;;;;;;4993408;28;20467;-90
2023/08/20 06:19:12;;;;;;;6.03;4.60;;;23.00;97.30;;;;;;4991328;28;20421;-90
2023/08/20 06:21:40;;;;;;;8.50;3.80;;;23.10;97.30;;;;;;4990850;28;20437;-90
2023/08/20 06:24:14;;;;;;;9.90;4.83;;;23.10;97.30;;;;;;4991007;28;20524;-90
2023/08/20 06:26:44;;;;;;;5.53;4.60;;;23.10;97.30;;;;;;4990983;28;20487;-90
2023/08/20 06:29:10;;;;;;;5.33;4.43;;;23.10;97.30;;;;;;4991578;28;20424;-91
2023/08/20 06:31:44;;;;;;;11.23;5.10;;;23.20;97.30;;;;;;4990811;28;20428;-90
2023/08/20 06:34:13;;;;;;;7.73;4.60;;;23.20;97.30;;;;;;4994874;28;20201;-90
2023/08/20 06:36:42;;;;;;;14.57;4.87;;;23.30;97.30;;;;;;5002091;28;20420;-90
2023/08/20 06:39:10;;;;;;;8.97;5.07;;;23.30;97.30;;;;;;4995167;28;20417;-90
2023/08/20 06:41:53;;;;;;;4.53;2.80;;;23.30;97.30;;;;;;4995514;28;20441;-90
2023/08/20 06:44:21;;;;;;;11.80;4.67;;;23.30;97.30;;;;;;4994725;28;20836;-90
2023/08/20 06:47:15;;;;;;;5.57;3.03;;;23.30;97.30;;;;;;4994438;28;20433;-93
2023/08/20 06:49:43;;;;;;;11.40;2.70;;;23.30;97.30;;;;;;4996419;28;20562;-90
2023/08/20 06:52:11;;;;;;;4.90;2.63;;;23.40;97.30;;;;;;4995063;28;20607;-90
2023/08/20 06:55:20;;;;;;;7.23;4.27;;;23.40;97.30;;;;;;5002565;28;20731;-90
2023/08/20 06:57:55;;;;;;;8.97;4.07;;;23.40;97.30;;;;;;4982793;28;20950;-90
2023/08/20 07:00:23;;;;;;;4.20;3.20;;;23.40;97.30;;;;;;4986975;28;20519;-89
2023/08/20 07:02:51;;;;;;;6.90;3.27;;;23.40;97.30;;;;;;4994049;28;20477;-90
2023/08/20 07:06:00;;;;;;;6.30;3.93;;;23.40;97.30;;;;;;4994756;28;20468;-89
2023/08/20 07:08:42;;;;;;;10.47;4.27;;;23.40;97.30;;;;;;4979633;28;20500;-91
2023/08/20 07:11:11;;;;;;;7.13;4.70;;;23.40;97.30;;;;;;4993744;28;20441;-88
2023/08/20 07:17:03;;;;;;;6.13;3.50;;;23.40;97.30;;;;;;4994325;28;20428;-90
2023/08/20 07:19:31;;;;;;;4.30;2.73;;;23.40;97.30;;;;;;4999742;28;20503;-91
2023/08/20 07:22:42;;;;;;;7.93;4.03;;;23.50;97.30;;;;;;4995836;28;20457;-90
2023/08/20 07:25:10;;;;;;;6.10;4.50;;;23.60;97.30;;;;;;4983210;28;20468;-91
2023/08/20 07:27:43;;;;;;;2.83;2.63;;;23.60;97.30;;;;;;4993637;28;20429;-90
2023/08/20 07:30:12;;;;;;;3.90;3.33;;;23.70;97.30;;;;;;4993914;28;20433;-89
2023/08/20 07:33:00;;;;;;;7.07;2.67;;;23.70;97.30;;;;;;5001648;28;20524;-89
2023/08/20 07:35:35;;;;;;;6.90;4.63;;;23.70;97.30;;;;;;4983411;28;20428;-92
2023/08/20 07:38:01;;;;;;;9.70;4.00;;;23.80;97.30;;;;;;4994001;28;20947;-90
2023/08/20 07:40:54;;;;;;;5.40;3.33;;;23.80;97.30;;;;;;4993703;28;20433;-91
2023/08/20 07:43:23;;;;;;;3.67;1.60;;;23.90;97.30;;;;;;4993641;28;20228;-90
2023/08/20 07:45:52;;;;;;;8.80;3.80;;;23.90;97.30;;;;;;4992818;28;20519;-90
2023/08/20 07:48:20;;;;;;;4.20;1.90;;;23.90;97.30;;;;;;4985721;28;20401;-89
2023/08/20 07:51:04;;;;;;;10.23;3.17;;;23.90;97.30;;;;;;4994646;28;20436;-90
2023/08/20 07:53:33;;;;;;;18.40;2.50;;;23.90;97.30;;;;;;4992465;28;20419;-90
2023/08/20 07:56:02;;;;;;;2.90;2.17;;;23.90;97.30;;;;;;4995492;28;20616;-90
2023/08/20 07:58:51;;;;;;;2.07;1.93;;;23.90;97.30;;;;;;4993044;28;20425;-90
2023/08/20 08:01:24;;;;;;;1.70;1.60;;;23.80;97.30;;;;;;4986645;28;20469;-90
2023/08/20 08:03:52;;;;;;;2.10;1.67;;;23.80;97.30;;;;;;5001527;28;20479;-88
2023/08/20 08:06:23;;;;;;;2.50;1.50;;;23.90;97.30;;;;;;4984874;28;20461;-90
2023/08/20 08:08:52;;;;;;;1.70;1.67;;;23.90;97.30;;;;;;4993977;28;20409;-89
2023/08/20 08:11:24;;;;;;;1.13;1.03;;;24.00;97.30;;;;;;5002115;28;20436;-90
2023/08/20 08:13:52;;;;;;;3.43;1.70;;;24.00;97.30;;;;;;4993350;28;20421;-90
2023/08/20 08:16:24;;;;;;;2.57;1.50;;;24.10;97.30;;;;;;4984733;28;20413;-89
2023/08/20 08:23:05;;;;;;;5.50;2.80;;;24.20;97.30;;;;;;4963284;28;20979;-91
2023/08/20 08:25:43;;;;;;;1.93;1.83;;;24.20;97.30;;;;;;4950930;28;21165;-92
2023/08/20 08:29:44;;;;;;;2.90;1.60;;;24.20;97.30;;;;;;4955120;28;20485;-91
2023/08/20 08:32:14;;;;;;;3.37;2.33;;;24.30;97.30;;;;;;4944626;28;20466;-89
2023/08/20 08:34:54;;;;;;;1.97;1.57;;;24.30;97.30;;;;;;4935644;29;20429;-91
2023/08/20 08:37:23;;;;;;;4.63;2.43;;;24.40;97.30;;;;;;4943531;28;20425;-89
2023/08/20 08:39:52;;;;;;;4.23;2.40;;;24.40;97.30;;;;;;4992376;28;20708;-89
2023/08/20 08:43:01;;;;;;;2.20;2.00;;;24.40;97.30;;;;;;4992072;28;20441;-90
2023/08/20 08:45:33;;;;;;;3.93;3.40;;;24.40;97.30;;;;;;4972403;28;20488;-90
2023/08/20 08:48:02;;;;;;;3.73;1.70;;;24.30;97.30;;;;;;5000525;28;20444;-90
2023/08/20 08:50:54;;;;;;;3.03;2.33;;;24.40;97.30;;;;;;4992249;28;20429;-90
2023/08/20 08:53:25;;;;;;;3.97;2.03;;;24.40;97.30;;;;;;4986946;28;20432;-89
2023/08/20 08:56:22;;;;;;;3.57;2.33;;;24.40;97.30;;;;;;4993113;28;20425;-89
2023/08/20 08:58:54;;;;;;;2.80;2.30;;;24.50;97.30;;;;;;4973687;28;20425;-91
2023/08/20 09:01:24;;;;;;;2.60;2.23;;;24.50;97.30;;;;;;4991517;28;20461;-93
2023/08/20 09:04:04;;;;;;;4.67;2.07;;;24.60;97.30;;;;;;4993121;28;20474;-90
2023/08/20 09:07:05;;;;;;;2.10;1.30;;;24.60;97.30;;;;;;4992971;28;20804;-90
2023/08/20 09:09:33;;;;;;;1.60;1.50;;;24.60;97.30;;;;;;4968037;28;20417;-89
2023/08/20 09:12:13;;;;;;;2.87;2.67;;;24.70;97.30;;;;;;5000135;28;20512;-90
2023/08/20 09:14:52;;;;;;;1.80;1.70;;;24.70;97.30;;;;;;5006270;28;20480;-89
2023/08/20 09:17:31;;;;;;;3.57;2.20;;;24.70;97.30;;;;;;5000561;28;20420;-89
2023/08/20 09:20:04;;;;;;;3.27;2.13;;;24.80;97.30;;;;;;4992790;28;20428;-89
2023/08/20 09:22:36;;;;;;;1.87;1.87;;;24.80;97.30;;;;;;4996060;28;20467;-89
2023/08/20 09:25:05;;;;;;;2.50;1.90;;;24.80;97.30;;;;;;5003351;28;20487;-90
2023/08/20 09:27:45;;;;;;;2.60;1.67;;;24.90;97.30;;;;;;5004739;28;20421;-90
2023/08/20 09:30:41;;;;;;;3.43;2.03;;;25.00;97.30;;;;;;4994636;28;20456;-90
2023/08/20 09:33:21;;;;;;;2.40;2.20;;;25.00;97.30;;;;;;4993853;28;20424;-91
2023/08/20 09:35:54;;;;;;;2.23;2.03;;;25.10;97.30;;;;;;5001170;28;20544;-90
2023/08/20 09:38:43;;;;;;;9.23;4.00;;;25.10;97.30;;;;;;5001021;28;20921;-91
2023/08/20 09:41:12;;;;;;;2.80;2.60;;;25.20;97.30;;;;;;4999615;28;20452;-90
2023/08/20 09:44:01;;;;;;;3.50;2.60;;;25.20;97.30;;;;;;4997358;28;20416;-89
2023/08/20 09:46:35;;;;;;;3.70;2.70;;;25.30;97.30;;;;;;4992882;28;20477;-90
2023/08/20 09:49:14;;;;;;;2.70;2.03;;;25.40;97.30;;;;;;4992130;28;20424;-90
2023/08/20 09:51:45;;;;;;;2.50;2.30;;;25.40;97.30;;;;;;4992471;28;20515;-90
2023/08/20 09:54:31;;;;;;;2.30;2.10;;;25.50;97.30;;;;;;4991957;28;20438;-90
2023/08/20 10:00:13;;;;;;;3.03;2.03;;;25.60;97.30;;;;;;4985967;28;20432;-90
2023/08/20 10:02:43;;;;;;;2.40;1.60;;;25.60;97.30;;;;;;4997777;28;20468;-89
2023/08/20 10:05:12;;;;;;;2.23;2.03;;;25.70;97.30;;;;;;4992317;28;20755;-90
2023/08/20 10:07:42;;;;;;;9.20;2.70;;;25.70;97.30;;;;;;4993491;28;20424;-90
2023/08/20 10:10:31;;;;;;;2.27;2.10;;;25.80;97.30;;;;;;5002679;28;20425;-90
2023/08/20 10:16:35;;;;;;;2.73;2.07;;;25.80;97.30;;;;;;4985315;28;20421;-91
2023/08/20 10:19:15;;;;;;;6.70;1.80;;;26.00;97.30;;;;;;4995523;28;20413;-89
2023/08/20 10:21:45;;;;;;;3.60;2.73;;;26.10;97.30;;;;;;4989214;28;20444;-90
2023/08/20 10:24:23;;;;;;;1.73;1.63;;;26.20;97.30;;;;;;4994840;28;20860;-90
2023/08/20 10:27:23;;;;;;;2.40;2.13;;;26.20;97.30;;;;;;4994554;28;20421;-90
2023/08/20 10:29:53;;;;;;;3.20;3.03;;;26.20;97.30;;;;;;4996704;28;20424;-91
2023/08/20 10:32:45;;;;;;;1.53;1.40;;;26.30;97.30;;;;;;4993924;28;20439;-90
2023/08/20 10:36:03;;;;;;;1.93;1.83;;;26.30;97.30;;;;;;4991489;28;20421;-90
2023/08/20 10:38:45;;;;;;;3.43;2.40;;;26.40;97.30;;;;;;4990177;28;20972;-91
2023/08/20 10:41:16;;;;;;;5.90;3.43;;;26.50;97.30;;;;;;5004845;28;20444;-91
2023/08/20 10:44:11;;;;;;;2.87;2.27;;;26.50;97.30;;;;;;4995044;28;20424;-90
2023/08/20 10:47:15;;;;;;;5.80;2.53;;;26.50;97.30;;;;;;4986711;28;20453;-90
2023/08/20 10:49:52;;;;;;;2.90;2.17;;;26.60;97.00;;;;;;4995189;28;20424;-90
2023/08/20 10:52:24;;;;;;;2.43;2.17;;;26.70;97.10;;;;;;4993896;28;20824;-90
2023/08/20 10:54:55;;;;;;;2.20;1.87;;;26.70;96.70;;;;;;4994883;28;20425;-90
2023/08/20 10:57:33;;;;;;;1.73;1.40;;;26.80;96.30;;;;;;4994734;28;20924;-90
2023/08/20 11:00:15;;;;;;;3.93;2.60;;;26.80;96.10;;;;;;4995101;28;20429;-91
2023/08/20 11:02:44;;;;;;;2.10;1.93;;;26.80;96.10;;;;;;4993137;28;20530;-90
2023/08/20 11:05:22;;;;;;;3.40;2.90;;;26.80;96.20;;;;;;4993354;28;20464;-90
2023/08/20 11:07:56;;;;;;;3.50;2.27;;;26.90;95.80;;;;;;4993595;28;20421;-91
2023/08/20 11:10:25;;;;;;;8.50;1.60;;;26.90;96.30;;;;;;4993604;28;20425;-88
2023/08/20 11:12:53;;;;;;;3.07;2.87;;;26.90;96.00;;;;;;4993434;28;20428;-90
2023/08/20 11:15:21;;;;;;;2.43;2.00;;;27.00;96.00;;;;;;4993440;28;20417;-90
2023/08/20 11:18:15;;;;;;;6.33;3.50;;;27.00;96.30;;;;;;4999850;28;20863;-92
2023/08/20 11:20:44;;;;;;;3.43;2.93;;;27.10;97.10;;;;;;4986948;28;20955;-90
2023/08/20 11:23:13;;;;;;;2.90;2.20;;;27.20;97.30;;;;;;4993880;28;20443;-91
2023/08/20 11:25:43;;;;;;;1.80;1.73;;;27.40;97.30;;;;;;5001198;28;20457;-90
2023/08/20 11:28:24;;;;;;;3.17;2.83;;;27.40;96.50;;;;;;4993581;28;20431;-90
2023/08/20 11:30:54;;;;;;;2.30;2.07;;;27.50;96.10;;;;;;4993095;28;20457;-91
2023/08/20 11:33:23;;;;;;;1.07;1.00;;;27.60;96.20;;;;;;4992509;28;20413;-91
2023/08/20 11:35:52;;;;;;;2.03;1.50;;;27.70;96.00;;;;;;4992926;28;20425;-90
2023/08/20 11:38:24;;;;;;;5.30;2.23;;;27.90;95.10;;;;;;5000236;28;20434;-92
2023/08/20 11:40:52;;;;;;;2.43;1.90;;;27.90;94.60;;;;;;4992188;28;20453;-91
2023/08/20 11:43:23;;;;;;;3.13;1.97;;;28.00;95.00;;;;;;4992307;28;20425;-91
2023/08/20 11:45:52;;;;;;;3.23;1.67;;;28.10;96.00;;;;;;4992751;28;20547;-90
2023/08/20 11:51:52;;;;;;;2.33;2.13;;;28.30;95.80;;;;;;4980954;28;20494;-91
2023/08/20 11:55:01;;;;;;;2.10;1.80;;;28.30;95.10;;;;;;5002147;28;20844;-91
2023/08/20 11:57:36;;;;;;;3.20;1.93;;;28.30;95.50;;;;;;4987731;28;20724;-91
2023/08/20 12:00:12;;;;;;;2.97;2.70;;;28.40;95.10;;;;;;4995135;28;20424;-91
2023/08/20 12:03:01;;;;;;;3.90;2.70;;;28.50;95.00;;;;;;4994805;28;20489;-92
2023/08/20 12:05:33;;;;;;;2.67;2.07;;;28.60;94.00;;;;;;4990649;28;20469;-91
2023/08/20 12:08:03;;;;;;;3.20;2.30;;;28.70;94.70;;;;;;4993777;28;20417;-91
2023/08/20 12:10:33;;;;;;;1.63;1.60;;;28.80;94.80;;;;;;5004781;28;20421;-91
2023/08/20 12:13:02;;;;;;;4.93;2.27;;;28.90;93.80;;;;;;4993356;28;20484;-92
2023/08/20 12:15:33;;;;;;;2.33;2.17;;;28.80;92.50;;;;;;4992408;28;20439;-91
2023/08/20 12:18:06;;;;;;;4.03;2.67;;;28.80;93.00;;;;;;4991882;28;20425;-90
2023/08/20 12:20:46;;;;;;;4.80;1.87;;;28.90;93.30;;;;;;4991364;28;20919;-92
2023/08/20 12:23:12;;;;;;;2.37;1.73;;;29.00;93.70;;;;;;5000327;28;20811;-91
2023/08/20 12:25:42;;;;;;;1.43;1.37;;;29.10;93.10;;;;;;4991465;28;20460;-91
2023/08/20 12:28:16;;;;;;;4.33;2.83;;;29.20;93.00;;;;;;4992076;28;20212;-91
2023/08/20 12:30:42;;;;;;;4.17;3.93;;;29.30;93.90;;;;;;4992795;28;20432;-90
2023/08/20 12:33:15;;;;;;;2.23;2.03;;;29.50;93.60;;;;;;4991530;28;20417;-91
2023/08/20 12:35:43;;;;;;;5.97;2.17;;;29.60;93.00;;;;;;4991469;28;20257;-90
2023/08/20 12:38:33;;;;;;;2.33;2.13;;;29.60;93.10;;;;;;4992589;28;20436;-91
2023/08/20 12:41:03;;;;;;;2.37;2.07;;;29.70;92.30;;;;;;4986659;28;20447;-93
2023/08/20 12:43:32;;;;;;;2.13;1.77;;;29.60;91.30;;;;;;4993437;28;20432;-92
2023/08/20 12:49:24;;;;;;;2.10;1.50;;;29.50;90.90;;;;;;4984235;28;20461;-90
2023/08/20 12:51:52;;;;;;;3.53;2.30;;;29.60;92.30;;;;;;4990417;28;20487;-91
2023/08/20 12:54:25;;;;;;;3.13;2.70;;;29.70;92.10;;;;;;4991551;28;20531;-89
2023/08/20 12:56:54;;;;;;;2.43;2.23;;;29.80;92.50;;;;;;4999149;28;20943;-92
2023/08/20 12:59:23;;;;;;;7.30;2.50;;;29.80;92.60;;;;;;4999884;28;20447;-90
2023/08/20 13:02:12;;;;;;;3.23;1.80;;;29.70;91.50;;;;;;4991942;28;20964;-91
2023/08/20 13:04:54;;;;;;;2.50;2.13;;;29.60;91.50;;;;;;4992987;28;20542;-90
2023/08/20 13:07:22;;;;;;;2.37;2.23;;;29.60;91.80;;;;;;4991479;28;20432;-91
2023/08/20 13:10:31;;;;;;;3.07;2.40;;;29.60;92.10;;;;;;4992307;28;20500;-90
2023/08/20 13:13:12;;;;;;;3.93;1.80;;;29.80;92.60;;;;;;4982294;28;20426;-91
2023/08/20 13:16:06;;;;;;;6.00;2.53;;;29.80;91.20;;;;;;4991338;28;20519;-90
2023/08/20 13:18:35;;;;;;;2.80;2.60;;;29.80;91.50;;;;;;4986888;28;20576;-89
2023/08/20 13:21:03;;;;;;;2.03;1.70;;;29.90;92.00;;;;;;4992030;28;20835;-90
2023/08/20 13:23:34;;;;;;;3.17;2.97;;;30.10;92.10;;;;;;4992279;28;20417;-92
2023/08/20 13:26:03;;;;;;;2.80;1.83;;;30.20;91.40;;;;;;4991970;28;20460;-90
2023/08/20 13:28:35;;;;;;;2.20;2.00;;;30.30;91.20;;;;;;4991779;28;20421;-91
2023/08/20 13:31:03;;;;;;;3.17;2.40;;;30.30;90.70;;;;;;4991612;28;20441;-92
2023/08/20 13:33:32;;;;;;;4.93;2.30;;;30.30;90.80;;;;;;5007196;28;20929;-90
2023/08/20 13:36:05;;;;;;;3.40;1.77;;;30.30;90.80;;;;;;4991781;28;20448;-91
2023/08/20 13:38:34;;;;;;;3.20;2.67;;;30.40;91.10;;;;;;4990841;28;20491;-91
2023/08/20 13:41:03;;;;;;;3.33;1.80;;;30.50;91.20;;;;;;5000170;28;20444;-91
2023/08/20 13:43:34;;;;;;;1.77;1.67;;;30.60;91.00;;;;;;4995826;28;20479;-90
2023/08/20 13:46:03;;;;;;;2.70;2.03;;;30.70;90.50;;;;;;5000958;28;20463;-91
2023/08/20 13:48:52;;;;;;;2.60;2.30;;;30.80;91.40;;;;;;4998126;28;20981;-91
2023/08/20 13:51:32;;;;;;;2.70;1.90;;;30.90;89.90;;;;;;4991564;28;20437;-90
2023/08/20 13:57:24;;;;;;;7.40;2.50;;;30.90;89.50;;;;;;4990668;28;20947;-91
2023/08/20 13:59:52;;;;;;;2.20;2.00;;;30.80;88.90;;;;;;5004110;28;20423;-91
2023/08/20 14:05:25;;;;;;;2.87;2.67;;;30.70;89.20;;;;;;4993760;28;20468;-89
2023/08/20 14:07:53;;;;;;;3.50;2.57;;;30.80;89.40;;;;;;4996334;28;20421;-91
2023/08/20 14:10:22;;;;;;;8.93;2.63;;;30.90;90.30;;;;;;4994414;28;20519;-90
2023/08/20 14:16:14;;;;;;;1.80;1.70;;;30.90;89.40;;;;;;4986216;28;20429;-91
2023/08/20 14:18:42;;;;;;;3.87;2.23;;;31.00;90.90;;;;;;4993423;28;20984;-92
2023/08/20 14:21:15;;;;;;;4.50;2.50;;;31.10;89.10;;;;;;4996176;28;20206;-91
2023/08/20 14:23:44;;;;;;;1.70;1.70;;;31.10;88.20;;;;;;4993909;28;20435;-91
2023/08/20 14:26:13;;;;;;;3.80;1.70;;;31.10;88.40;;;;;;4994047;28;20507;-92
2023/08/20 14:28:46;;;;;;;3.30;2.03;;;31.10;88.60;;;;;;4993839;28;20425;-93
2023/08/20 14:31:14;;;;;;;2.90;1.70;;;31.20;88.60;;;;;;5001975;28;20445;-90
2023/08/20 14:33:43;;;;;;;2.67;2.00;;;31.20;87.90;;;;;;4993869;28;20433;-92
2023/08/20 14:36:12;;;;;;;2.30;1.77;;;31.20;88.90;;;;;;5000491;28;20431;-93
2023/08/20 14:38:52;;;;;;;2.27;2.07;;;31.20;90.20;;;;;;4993765;28;20428;-91
2023/08/20 14:41:24;;;;;;;3.23;1.93;;;31.30;88.90;;;;;;4993967;28;20544;-91
2023/08/20 14:44:14;;;;;;;3.97;2.83;;;31.30;88.50;;;;;;4987318;28;20483;-90
2023/08/20 14:46:42;;;;;;;2.03;1.90;;;31.20;87.50;;;;;;4995269;28;20468;-91
2023/08/20 14:49:54;;;;;;;5.90;2.10;;;31.20;87.90;;;;;;4994954;28;20416;-91
2023/08/20 14:52:23;;;;;;;4.57;2.50;;;31.00;88.50;;;;;;4980648;28;20448;-91
2023/08/20 14:55:14;;;;;;;3.17;2.40;;;31.00;87.70;;;;;;4999820;28;20420;-90
2023/08/20 14:57:43;;;;;;;2.40;2.00;;;31.00;88.10;;;;;;4988037;28;20426;-91
2023/08/20 15:00:24;;;;;;;3.50;2.17;;;31.00;88.40;;;;;;4999682;28;20423;-91
2023/08/20 15:02:56;;;;;;;4.63;2.27;;;31.00;88.00;;;;;;4986058;28;20503;-89
2023/08/20 15:05:25;;;;;;;3.37;2.70;;;31.00;88.90;;;;;;4993922;28;20560;-91
2023/08/20 15:07:53;;;;;;;4.40;3.13;;;31.10;87.80;;;;;;4993967;28;20471;-89
2023/08/20 15:10:26;;;;;;;2.00;1.90;;;31.20;88.00;;;;;;4994266;28;20432;-90
2023/08/20 15:12:54;;;;;;;2.60;2.40;;;31.30;88.20;;;;;;4993708;28;20444;-91
2023/08/20 15:15:23;;;;;;;2.70;1.67;;;31.30;87.40;;;;;;4993275;28;20475;-90
2023/08/20 15:17:56;;;;;;;1.80;1.50;;;31.20;87.50;;;;;;4997212;28;20456;-90
2023/08/20 15:20:22;;;;;;;2.50;1.90;;;31.20;87.30;;;;;;4996796;28;20790;-88
2023/08/20 15:22:55;;;;;;;1.53;1.43;;;31.10;87.50;;;;;;4996754;28;20454;-91
2023/08/20 15:25:23;;;;;;;3.47;2.57;;;31.10;87.10;;;;;;5000672;28;20807;-91
2023/08/20 15:28:05;;;;;;;3.53;2.60;;;31.10;87.30;;;;;;4991867;28;20420;-92
2023/08/20 15:30:34;;;;;;;3.00;2.17;;;31.10;87.20;;;;;;4993976;28;20429;-91
2023/08/20 15:33:13;;;;;;;2.80;2.23;;;31.10;88.20;;;;;;4991778;28;20421;-91
2023/08/20 15:36:02;;;;;;;3.53;2.17;;;31.10;87.30;;;;;;4994405;28;20429;-91
2023/08/20 15:38:35;;;;;;;2.00;1.70;;;31.10;88.00;;;;;;4998985;28;20431;-92
2023/08/20 15:41:03;;;;;;;3.47;2.07;;;31.10;88.20;;;;;;4990901;28;20445;-91
2023/08/20 15:43:32;;;;;;;3.37;2.10;;;31.10;87.20;;;;;;4992095;28;20428;-91
2023/08/20 15:45:57;;;;;;;3.57;1.70;;;31.20;87.70;;;;;;4990820;28;20448;-90
2023/08/20 15:48:23;;;;;;;2.10;1.63;;;31.20;88.10;;;;;;4990835;28;20424;-91
2023/08/20 15:50:48;;;;;;;3.13;2.43;;;31.30;87.20;;;;;;4993306;28;20205;-90
2023/08/20 15:53:14;;;;;;;1.93;1.60;;;31.30;87.10;;;;;;4997129;28;20683;-90
2023/08/20 15:55:39;;;;;;;1.60;1.23;;;31.30;86.90;;;;;;4991939;28;20187;-90
2023/08/20 15:58:05;;;;;;;3.10;2.03;;;31.20;87.10;;;;;;4999900;28;20189;-91
2023/08/20 16:00:31;;;;;;;1.63;1.53;;;31.20;87.40;;;;;;4991362;28;20204;-90
2023/08/20 16:02:57;;;;;;;2.33;1.60;;;31.20;86.70;;;;;;4993501;28;20313;-90
2023/08/20 16:05:22;;;;;;;4.77;3.43;;;31.10;86.60;;;;;;4992096;28;20548;-90
2023/08/20 16:07:48;;;;;;;2.00;1.90;;;31.10;87.00;;;;;;4992280;28;20652;-90
2023/08/20 16:10:15;;;;;;;2.53;2.33;;;31.10;87.80;;;;;;4992593;28;20376;-92
2023/08/20 16:12:41;;;;;;;4.10;2.00;;;31.10;87.80;;;;;;4993172;28;20240;-91
2023/08/20 16:15:07;;;;;;;2.80;1.80;;;31.20;87.50;;;;;;5015358;23;20493;-88
2023/08/20 16:17:33;;;;;;;3.67;2.37;;;31.10;86.70;;;;;;4990187;28;20429;-88
2023/08/20 16:20:01;;;;;;;1.97;1.87;;;31.00;86.90;;;;;;4990286;28;20468;-88
2023/08/20 16:22:27;;;;;;;3.87;2.37;;;31.00;87.80;;;;;;4993189;28;20182;-86
2023/08/20 16:24:53;;;;;;;3.20;2.20;;;31.00;87.60;;;;;;4986981;28;20461;-88
2023/08/20 16:27:19;;;;;;;2.53;1.80;;;31.00;87.60;;;;;;4975510;28;20964;-88
2023/08/20 16:29:44;;;;;;;4.80;2.63;;;31.00;87.80;;;;;;4975252;28;20227;-88
2023/08/20 16:32:10;;;;;;;5.03;2.80;;;31.00;87.80;;;;;;4970507;28;20264;-88
2023/08/20 16:34:35;;;;;;;2.60;2.40;;;30.90;87.10;;;;;;4977230;28;20213;-88
2023/08/20 16:37:02;;;;;;;2.40;2.30;;;30.80;88.30;;;;;;4969641;28;20321;-88
2023/08/20 16:39:28;;;;;;;3.23;1.93;;;30.80;87.80;;;;;;4969675;28;20660;-87
2023/08/20 16:41:53;;;;;;;5.20;2.57;;;30.80;87.80;;;;;;4977421;28;20422;-90
2023/08/20 16:44:20;;;;;;;2.33;1.97;;;30.70;87.50;;;;;;4976223;28;20178;-88
2023/08/20 16:46:46;;;;;;;1.97;1.80;;;30.60;87.70;;;;;;4970170;28;20214;-88
2023/08/20 16:49:12;;;;;;;1.37;1.30;;;30.50;88.40;;;;;;4969162;28;20429;-88
2023/08/20 16:51:37;;;;;;;2.33;1.77;;;30.50;88.20;;;;;;4969414;28;20426;-87
2023/08/20 16:54:03;;;;;;;5.43;2.20;;;30.50;88.10;;;;;;4968592;28;20186;-88
2023/08/20 16:56:29;;;;;;;3.27;2.10;;;30.40;88.40;;;;;;4969895;28;20186;-88
2023/08/20 16:58:55;;;;;;;4.10;2.37;;;30.30;88.60;;;;;;4969613;28;20190;-87
2023/08/20 17:01:20;;;;;;;3.47;1.83;;;30.20;88.80;;;;;;4970666;28;20469;-87
2023/08/20 17:03:46;;;;;;;1.73;1.70;;;30.00;88.90;;;;;;4970414;28;20186;-88
2023/08/20 17:06:11;;;;;;;4.20;1.70;;;29.90;89.30;;;;;;4971372;28;20218;-88
2023/08/20 17:08:37;;;;;;;1.73;1.63;;;29.70;89.60;;;;;;4972442;28;20193;-87
2023/08/20 17:11:07;;;;;;;1.60;1.50;;;29.60;89.80;;;;;;4973027;28;20710;-87
2023/08/20 17:13:33;;;;;;;1.80;1.70;;;29.50;90.20;;;;;;4972677;28;20226;-88
2023/08/20 17:16:06;;;;;;;2.00;1.80;;;29.40;90.50;;;;;;4971958;28;20478;-88
2023/08/20 17:18:34;;;;;;;5.87;2.80;;;29.30;90.70;;;;;;4972443;28;20429;-87
2023/08/20 17:21:05;;;;;;;4.60;3.00;;;29.20;90.80;;;;;;4971561;28;20461;-87
2023/08/20 17:23:35;;;;;;;2.27;1.60;;;29.10;91.30;;;;;;4972521;28;20418;-87
2023/08/20 17:26:04;;;;;;;2.47;1.90;;;29.10;91.20;;;;;;4965078;28;20453;-88
2023/08/20 17:28:33;;;;;;;4.90;1.83;;;29.00;91.50;;;;;;4972646;28;20441;-87
2023/08/20 17:31:06;;;;;;;2.80;2.10;;;28.90;91.60;;;;;;4972834;28;20427;-87
2023/08/20 17:33:34;;;;;;;1.90;1.73;;;28.90;92.20;;;;;;4972842;28;20473;-87
2023/08/20 17:36:03;;;;;;;1.87;1.53;;;28.80;91.70;;;;;;4964568;28;20446;-87
2023/08/20 17:38:28;;;;;;;4.10;2.13;;;28.70;91.80;;;;;;4972022;28;20932;-87
2023/08/20 17:40:54;;;;;;;1.73;1.60;;;28.70;92.30;;;;;;4979963;28;20422;-87
2023/08/20 17:43:23;;;;;;;1.87;1.80;;;28.60;91.90;;;;;;4971421;28;20179;-87
2023/08/20 17:45:56;;;;;;;3.57;2.40;;;28.50;91.90;;;;;;4972344;28;20210;-86
2023/08/20 17:48:27;;;;;;;2.37;2.07;;;28.50;91.90;;;;;;4971269;28;20799;-88
2023/08/20 17:50:52;;;;;;;2.27;1.90;;;28.40;92.10;;;;;;4981069;28;21006;-88
2023/08/20 17:53:24;;;;;;;2.23;2.03;;;28.40;92.10;;;;;;4977949;28;20422;-88
2023/08/20 17:55:52;;;;;;;2.13;1.97;;;28.40;92.30;;;;;;4971495;28;20222;-88